createdAt,value
2019-02-14T00:00:15.263Z,4.10
2019-02-14T00:02:43.306Z,4.30
2019-02-14T00:05:16.421Z,4.93
2019-02-14T00:07:41.687Z,4.60
2019-02-14T00:10:10.299Z,4.70
2019-02-14T00:12:38.381Z,5.27
2019-02-14T00:15:07.375Z,5.43
2019-02-14T00:17:35.760Z,6.17
2019-02-14T00:20:04.785Z,5.40
2019-02-14T00:22:32.807Z,5.97
2019-02-14T00:25:01.187Z,6.00
2019-02-14T00:27:29.197Z,5.13
2019-02-14T00:29:57.611Z,5.77
2019-02-14T00:32:25.715Z,5.53
2019-02-14T00:35:13.260Z,6.33
2019-02-14T00:37:41.799Z,5.50
2019-02-14T00:40:10.182Z,5.37
2019-02-14T00:42:38.506Z,5.20
2019-02-14T00:45:06.807Z,5.90
2019-02-14T00:47:34.834Z,6.20
2019-02-14T00:50:02.971Z,5.37
2019-02-14T00:52:31.016Z,4.40
2019-02-14T00:54:59.087Z,4.40
2019-02-14T00:57:27.159Z,4.37
2019-02-14T00:59:55.150Z,4.47
2019-02-14T01:02:23.505Z,4.27
2019-02-14T01:04:51.508Z,4.00
2019-02-14T01:07:19.858Z,4.00
2019-02-14T01:09:47.885Z,4.07
2019-02-14T01:12:16.440Z,4.10
2019-02-14T01:14:44.467Z,3.80
2019-02-14T01:17:12.589Z,4.80
2019-02-14T01:19:40.579Z,5.73
2019-02-14T01:22:08.599Z,6.23
2019-02-14T01:24:36.806Z,6.23
2019-02-14T01:27:04.890Z,6.43
2019-02-14T01:29:32.894Z,5.30
2019-02-14T01:32:01.902Z,5.70
2019-02-14T01:34:30.139Z,5.03
2019-02-14T01:36:58.414Z,5.27
2019-02-14T01:39:26.412Z,4.77
2019-02-14T01:41:54.431Z,4.17
2019-02-14T01:44:22.432Z,3.90
2019-02-14T01:46:50.498Z,4.80
2019-02-14T01:49:18.540Z,4.13
2019-02-14T01:51:46.527Z,5.00
2019-02-14T01:54:14.782Z,4.40
2019-02-14T01:56:42.779Z,4.40
2019-02-14T01:59:10.815Z,3.87
2019-02-14T02:01:39.151Z,4.33
2019-02-14T02:04:07.603Z,4.63
2019-02-14T02:06:35.692Z,4.43
2019-02-14T02:09:06.446Z,4.57
2019-02-14T02:11:34.666Z,4.20
2019-02-14T02:14:03.131Z,4.30
2019-02-14T02:16:31.275Z,4.27
2019-02-14T02:18:59.335Z,4.43
2019-02-14T02:21:40.139Z,4.50
2019-02-14T02:24:08.680Z,3.93
2019-02-14T02:26:36.941Z,4.00
2019-02-14T02:29:05.241Z,4.53
2019-02-14T02:31:33.287Z,4.13
2019-02-14T02:34:01.346Z,4.20
2019-02-14T02:36:29.387Z,4.20
2019-02-14T02:38:57.796Z,4.30
2019-02-14T02:41:26.220Z,4.40
2019-02-14T02:43:54.560Z,3.90
2019-02-14T02:46:22.893Z,3.87
2019-02-14T02:48:50.955Z,3.70
2019-02-14T02:51:18.934Z,3.63
2019-02-14T02:53:47.000Z,3.80
2019-02-14T02:56:15.344Z,3.47
2019-02-14T02:58:43.703Z,3.67
2019-02-14T03:01:11.996Z,3.90
2019-02-14T03:03:40.421Z,4.00
2019-02-14T03:06:10.801Z,3.80
2019-02-14T03:08:38.841Z,3.47
2019-02-14T03:11:06.822Z,3.60
2019-02-14T03:13:34.846Z,3.20
2019-02-14T03:16:02.898Z,3.30
2019-02-14T03:18:31.252Z,3.50
2019-02-14T03:20:59.538Z,3.60
2019-02-14T03:23:27.880Z,3.40
2019-02-14T03:25:55.858Z,3.20
2019-02-14T03:28:24.128Z,2.80
2019-02-14T03:30:52.044Z,3.30
2019-02-14T03:33:20.108Z,3.10
2019-02-14T03:35:48.349Z,3.80
2019-02-14T03:38:19.606Z,3.50
2019-02-14T03:40:47.811Z,3.10
2019-02-14T03:43:16.167Z,3.23
2019-02-14T03:45:44.227Z,2.97
2019-02-14T03:48:12.217Z,3.20
2019-02-14T03:50:40.823Z,2.83
2019-02-14T03:53:09.271Z,3.07
2019-02-14T03:55:37.615Z,3.53
2019-02-14T03:58:05.635Z,3.80
2019-02-14T04:00:33.942Z,3.73
2019-02-14T04:03:02.393Z,3.00
2019-02-14T04:05:31.032Z,2.80
2019-02-14T04:07:59.054Z,3.20
2019-02-14T04:10:27.120Z,3.00
2019-02-14T04:12:55.191Z,2.80
2019-02-14T04:15:23.430Z,2.90
2019-02-14T04:17:51.466Z,2.77
2019-02-14T04:20:19.584Z,2.63
2019-02-14T04:22:47.774Z,2.80
2019-02-14T04:25:15.744Z,2.63
2019-02-14T04:27:43.778Z,2.40
2019-02-14T04:30:12.555Z,2.70
2019-02-14T04:32:40.540Z,2.50
2019-02-14T04:35:08.611Z,2.80
2019-02-14T04:37:36.603Z,2.47
2019-02-14T04:40:05.682Z,2.30
2019-02-14T04:42:33.695Z,2.47
2019-02-14T04:45:01.778Z,2.30
2019-02-14T04:47:29.782Z,2.80
2019-02-14T04:49:57.845Z,2.50
2019-02-14T04:52:25.863Z,2.70
2019-02-14T04:54:53.911Z,2.30
2019-02-14T04:57:22.424Z,2.80
2019-02-14T04:59:50.355Z,2.47
2019-02-14T05:02:18.474Z,2.40
2019-02-14T05:04:46.502Z,2.37
2019-02-14T05:07:14.527Z,2.50
2019-02-14T05:09:42.815Z,2.60
2019-02-14T05:12:11.014Z,2.60
2019-02-14T05:14:39.086Z,2.30
2019-02-14T05:17:07.098Z,2.27
2019-02-14T05:19:35.052Z,2.70
2019-02-14T05:22:03.159Z,2.63
2019-02-14T05:24:31.310Z,2.43
2019-02-14T05:27:00.927Z,3.17
2019-02-14T05:29:29.034Z,3.20
2019-02-14T05:31:57.083Z,2.73
2019-02-14T05:34:25.148Z,3.13
2019-02-14T05:36:55.211Z,3.27
2019-02-14T05:39:22.914Z,3.07
2019-02-14T05:41:51.134Z,3.03
2019-02-14T05:44:19.049Z,2.97
2019-02-14T05:46:47.121Z,3.20
2019-02-14T05:49:15.234Z,2.90
2019-02-14T05:51:43.249Z,3.50
2019-02-14T05:54:11.319Z,3.50
2019-02-14T05:56:39.354Z,3.83
2019-02-14T05:59:07.316Z,3.00
2019-02-14T06:01:35.663Z,2.77
2019-02-14T06:04:04.098Z,3.07
2019-02-14T06:06:32.075Z,3.57
2019-02-14T06:09:00.034Z,3.80
2019-02-14T06:11:28.134Z,3.50
2019-02-14T06:13:56.216Z,3.50
2019-02-14T06:16:24.750Z,3.50
2019-02-14T06:18:53.204Z,3.60
2019-02-14T06:21:21.322Z,3.87
2019-02-14T06:23:49.435Z,3.90
2019-02-14T06:26:17.483Z,3.60
2019-02-14T06:28:46.508Z,3.33
2019-02-14T06:31:14.458Z,3.50
2019-02-14T06:33:44.285Z,3.97
2019-02-14T06:36:12.447Z,3.80
2019-02-14T06:38:40.764Z,3.87
2019-02-14T06:41:08.800Z,3.90
2019-02-14T06:43:36.793Z,3.80
2019-02-14T06:46:04.718Z,4.00
2019-02-14T06:48:32.865Z,4.10
2019-02-14T06:51:00.979Z,3.90
2019-02-14T06:53:28.936Z,4.33
2019-02-14T06:55:57.006Z,4.23
2019-02-14T06:58:25.087Z,4.77
2019-02-14T07:00:54.042Z,4.50
2019-02-14T07:03:22.426Z,4.10
2019-02-14T07:05:50.501Z,4.47
2019-02-14T07:08:18.555Z,4.97
2019-02-14T07:10:46.573Z,6.63
2019-02-14T07:13:14.950Z,6.73
2019-02-14T07:15:43.027Z,7.07
2019-02-14T07:18:11.128Z,9.53
2019-02-14T07:20:39.167Z,17.33
2019-02-14T07:23:07.175Z,15.67
2019-02-14T07:25:35.231Z,20.00
2019-02-14T07:28:03.179Z,19.73
2019-02-14T07:30:31.170Z,12.87
2019-02-14T07:32:59.367Z,11.47
2019-02-14T07:35:27.627Z,11.30
2019-02-14T07:37:55.690Z,11.37
2019-02-14T07:40:23.940Z,11.53
2019-02-14T07:42:52.380Z,12.70
2019-02-14T07:45:20.474Z,13.47
2019-02-14T07:47:48.436Z,14.03
2019-02-14T07:50:16.881Z,15.07
2019-02-14T07:52:45.008Z,13.77
2019-02-14T07:55:13.220Z,13.00
2019-02-14T07:57:41.410Z,14.27
2019-02-14T08:00:11.475Z,16.50
2019-02-14T08:02:39.587Z,23.77
2019-02-14T08:05:07.751Z,32.83
2019-02-14T08:07:36.318Z,30.33
2019-02-14T08:10:05.123Z,24.57
2019-02-14T08:12:33.079Z,20.20
2019-02-14T08:15:01.038Z,19.13
2019-02-14T08:17:29.040Z,15.97
2019-02-14T08:19:57.043Z,15.23
2019-02-14T08:22:25.564Z,17.83
2019-02-14T08:24:53.478Z,18.03
2019-02-14T08:27:21.771Z,20.23
2019-02-14T08:29:51.678Z,22.77
2019-02-14T08:32:19.523Z,14.03
2019-02-14T08:34:47.526Z,11.30
2019-02-14T08:37:15.987Z,11.37
2019-02-14T08:39:44.075Z,9.40
2019-02-14T08:42:12.111Z,7.90
2019-02-14T08:44:40.115Z,6.87
2019-02-14T08:47:08.243Z,6.93
2019-02-14T08:49:36.227Z,6.97
2019-02-14T08:52:04.331Z,6.80
2019-02-14T08:54:32.297Z,7.10
2019-02-14T08:57:02.139Z,7.57
2019-02-14T08:59:30.155Z,7.80
2019-02-14T09:01:58.175Z,7.63
2019-02-14T09:04:26.196Z,7.67
2019-02-14T09:06:54.259Z,7.43
2019-02-14T09:09:22.277Z,8.70
2019-02-14T09:11:50.278Z,9.70
2019-02-14T09:14:21.101Z,14.37
2019-02-14T09:16:49.175Z,10.53
2019-02-14T09:19:17.116Z,9.77
2019-02-14T09:21:45.167Z,9.80
2019-02-14T09:24:13.630Z,9.40
2019-02-14T09:26:41.623Z,10.53
2019-02-14T09:29:09.643Z,11.40
2019-02-14T09:31:37.911Z,10.90
2019-02-14T09:34:05.989Z,12.03
2019-02-14T09:36:34.452Z,13.70
2019-02-14T09:39:03.545Z,12.50
2019-02-14T09:41:31.677Z,12.43
2019-02-14T09:43:59.933Z,13.10
2019-02-14T09:46:28.122Z,14.17
2019-02-14T09:48:56.152Z,15.80
2019-02-14T09:51:24.202Z,18.87
2019-02-14T09:53:52.214Z,23.10
2019-02-14T09:56:20.216Z,24.13
2019-02-14T09:58:48.244Z,23.47
2019-02-14T10:01:16.334Z,23.33
2019-02-14T10:03:44.487Z,21.13
2019-02-14T10:06:12.720Z,16.90
2019-02-14T10:08:40.930Z,18.23
2019-02-14T10:11:08.971Z,28.60
2019-02-14T10:13:37.018Z,23.63
2019-02-14T10:16:04.952Z,21.53
2019-02-14T10:18:32.915Z,15.93
2019-02-14T10:21:00.975Z,11.50
2019-02-14T10:23:29.027Z,10.67
2019-02-14T10:25:57.302Z,10.60
2019-02-14T10:28:25.322Z,11.87
2019-02-14T10:30:53.338Z,11.07
2019-02-14T10:33:21.350Z,16.77
2019-02-14T10:35:49.367Z,15.50
2019-02-14T10:38:22.368Z,11.60
2019-02-14T10:40:47.561Z,10.77
2019-02-14T10:43:15.779Z,10.83
2019-02-14T10:45:43.815Z,10.73
2019-02-14T10:48:11.843Z,17.33
2019-02-14T10:50:39.856Z,19.33
2019-02-14T10:53:07.809Z,16.83
2019-02-14T10:55:35.830Z,12.07
2019-02-14T10:58:03.936Z,11.50
2019-02-14T11:00:32.179Z,10.67
2019-02-14T11:03:00.292Z,10.43
2019-02-14T11:05:28.256Z,9.97
2019-02-14T11:07:56.380Z,10.03
2019-02-14T11:10:24.566Z,9.40
2019-02-14T11:12:52.503Z,8.77
2019-02-14T11:15:26.298Z,8.57
2019-02-14T11:17:54.431Z,8.50
2019-02-14T11:20:22.335Z,9.77
2019-02-14T11:22:50.431Z,8.70
2019-02-14T11:25:21.470Z,9.20
2019-02-14T11:27:49.651Z,8.70
2019-02-14T11:30:17.713Z,8.73
2019-02-14T11:32:45.671Z,8.67
2019-02-14T11:35:13.696Z,9.63
2019-02-14T11:37:42.230Z,8.00
2019-02-14T11:40:10.895Z,7.63
2019-02-14T11:42:38.981Z,6.60
2019-02-14T11:45:09.363Z,6.10
2019-02-14T11:47:37.922Z,6.80
2019-02-14T11:50:06.931Z,6.00
2019-02-14T11:52:35.014Z,4.83
2019-02-14T11:55:03.116Z,5.57
2019-02-14T11:57:31.096Z,4.60
2019-02-14T11:59:59.071Z,4.60
2019-02-14T12:02:27.065Z,3.73
2019-02-14T12:04:55.191Z,4.13
2019-02-14T12:07:23.110Z,3.50
2019-02-14T12:09:51.104Z,3.47
2019-02-14T12:12:20.756Z,3.20
2019-02-14T12:15:13.626Z,3.13
2019-02-14T12:17:41.407Z,3.70
2019-02-14T12:20:12.376Z,3.33
2019-02-14T12:22:46.301Z,2.97
2019-02-14T12:25:10.540Z,3.10
2019-02-14T12:27:38.619Z,3.90
2019-02-14T12:30:09.014Z,3.27
2019-02-14T12:32:37.127Z,3.23
2019-02-14T12:35:05.254Z,3.80
2019-02-14T12:37:45.769Z,3.60
2019-02-14T12:40:14.323Z,3.87
2019-02-14T12:42:42.349Z,4.63
2019-02-14T12:45:20.207Z,5.10
2019-02-14T12:47:41.687Z,5.17
2019-02-14T12:50:09.839Z,5.00
2019-02-14T12:52:37.832Z,4.60
2019-02-14T12:55:06.144Z,4.50
2019-02-14T12:57:34.211Z,4.97
2019-02-14T13:00:02.196Z,5.47
2019-02-14T13:02:30.206Z,4.80
2019-02-14T13:04:58.285Z,4.80
2019-02-14T13:07:26.338Z,5.07
2019-02-14T13:09:54.560Z,5.40
2019-02-14T13:12:22.853Z,4.97
2019-02-14T13:15:16.865Z,5.95
2019-02-14T13:17:44.519Z,6.03
2019-02-14T13:20:12.847Z,6.00
2019-02-14T13:22:40.814Z,7.73
2019-02-14T13:25:09.570Z,7.57
2019-02-14T13:27:37.703Z,6.77
2019-02-14T13:30:07.268Z,7.13
2019-02-14T13:32:35.250Z,7.70
2019-02-14T13:35:03.456Z,7.50
2019-02-14T13:37:31.488Z,6.27
2019-02-14T13:39:59.506Z,6.87
2019-02-14T13:42:27.583Z,10.27
2019-02-14T13:44:55.755Z,11.03
2019-02-14T13:47:23.836Z,8.73
2019-02-14T13:49:51.824Z,9.33
2019-02-14T13:52:19.986Z,7.33
2019-02-14T13:54:48.032Z,9.20
2019-02-14T13:57:16.187Z,10.17
2019-02-14T13:59:44.275Z,8.90
2019-02-14T14:02:12.379Z,7.83
2019-02-14T14:04:40.446Z,6.70
2019-02-14T14:07:08.447Z,6.07
2019-02-14T14:09:38.705Z,6.70
2019-02-14T14:12:06.527Z,5.87
2019-02-14T14:15:00.730Z,5.73
2019-02-14T14:17:28.575Z,5.83
2019-02-14T14:19:56.554Z,5.50
2019-02-14T14:22:24.516Z,5.43
2019-02-14T14:24:52.539Z,5.40
2019-02-14T14:27:20.671Z,5.10
2019-02-14T14:29:48.702Z,5.20
2019-02-14T14:32:16.780Z,4.90
2019-02-14T14:34:45.268Z,4.97
2019-02-14T14:37:13.361Z,4.53
2019-02-14T14:39:47.657Z,4.80
2019-02-14T14:42:30.615Z,5.57
2019-02-14T14:44:58.799Z,5.07
2019-02-14T14:47:26.883Z,4.73
2019-02-14T14:49:54.871Z,4.57
2019-02-14T14:52:22.936Z,5.63
2019-02-14T14:54:50.928Z,5.40
2019-02-14T14:57:18.882Z,5.60
2019-02-14T14:59:47.327Z,6.03
2019-02-14T15:02:15.763Z,5.60
2019-02-14T15:04:43.846Z,12.37
2019-02-14T15:07:11.870Z,6.83
2019-02-14T15:09:39.889Z,5.90
2019-02-14T15:12:08.312Z,6.57
2019-02-14T15:15:14.619Z,6.43
2019-02-14T15:17:41.607Z,6.13
2019-02-14T15:20:09.644Z,6.10
2019-02-14T15:22:37.648Z,6.13
2019-02-14T15:25:05.831Z,5.97
2019-02-14T15:27:34.044Z,5.50
2019-02-14T15:30:02.069Z,6.43
2019-02-14T15:32:30.200Z,5.83
2019-02-14T15:34:58.249Z,6.13
2019-02-14T15:37:34.637Z,5.90
2019-02-14T15:40:09.403Z,6.20
2019-02-14T15:42:32.673Z,6.37
2019-02-14T15:45:00.679Z,6.23
2019-02-14T15:47:30.813Z,5.90
2019-02-14T15:49:58.505Z,6.40
2019-02-14T15:52:27.448Z,6.20
2019-02-14T15:54:58.134Z,7.50
2019-02-14T15:57:26.243Z,6.20
2019-02-14T15:59:54.260Z,6.80
2019-02-14T16:02:22.293Z,9.50
2019-02-14T16:04:50.758Z,12.73
2019-02-14T16:07:20.182Z,17.77
2019-02-14T16:09:48.831Z,24.63
2019-02-14T16:12:17.454Z,29.50
2019-02-14T16:15:16.907Z,21.10
2019-02-14T16:17:44.402Z,16.33
2019-02-14T16:20:12.959Z,14.60
2019-02-14T16:22:42.387Z,15.33
2019-02-14T16:25:10.950Z,23.17
2019-02-14T16:27:38.935Z,23.30
2019-02-14T16:30:09.270Z,21.60
2019-02-14T16:32:37.151Z,20.17
2019-02-14T16:35:05.484Z,19.60
2019-02-14T16:37:33.445Z,18.57
2019-02-14T16:40:01.459Z,20.87
2019-02-14T16:42:29.835Z,20.97
2019-02-14T16:44:58.846Z,21.93
2019-02-14T16:47:26.925Z,24.23
2019-02-14T16:49:54.998Z,21.87
2019-02-14T16:52:23.090Z,19.63
2019-02-14T16:54:51.153Z,19.53
2019-02-14T16:57:19.212Z,23.57
2019-02-14T16:59:47.380Z,25.40
2019-02-14T17:02:15.543Z,21.63
2019-02-14T17:04:43.765Z,19.50
2019-02-14T17:07:11.919Z,17.87
2019-02-14T17:09:39.919Z,19.70
2019-02-14T17:12:07.952Z,18.43
2019-02-14T17:15:00.460Z,18.00
2019-02-14T17:17:28.361Z,20.53
2019-02-14T17:19:56.473Z,19.57
2019-02-14T17:22:24.654Z,18.60
2019-02-14T17:24:52.671Z,18.50
2019-02-14T17:27:20.747Z,21.03
2019-02-14T17:29:48.813Z,19.70
2019-02-14T17:32:16.898Z,19.17
2019-02-14T17:34:45.360Z,19.60
2019-02-14T17:37:13.515Z,21.17
2019-02-14T17:39:41.920Z,17.73
2019-02-14T17:42:10.113Z,17.30
2019-02-14T17:44:38.797Z,15.37
2019-02-14T17:47:07.421Z,15.67
2019-02-14T17:49:35.989Z,15.47
2019-02-14T17:52:05.577Z,16.13
2019-02-14T17:54:34.421Z,16.80
2019-02-14T17:57:04.659Z,15.97
2019-02-14T17:59:33.442Z,15.87
2019-02-14T18:02:03.956Z,18.87
2019-02-14T18:04:32.857Z,19.77
2019-02-14T18:07:03.218Z,19.33
2019-02-14T18:09:31.915Z,17.40
2019-02-14T18:12:02.253Z,17.17
2019-02-14T18:14:53.171Z,17.47
2019-02-14T18:17:22.094Z,14.50
2019-02-14T18:19:50.878Z,15.00
2019-02-14T18:22:19.715Z,15.93
2019-02-14T18:24:48.515Z,14.50
2019-02-14T18:27:17.366Z,13.37
2019-02-14T18:29:46.201Z,12.83
2019-02-14T18:32:15.025Z,14.40
2019-02-14T18:34:43.822Z,12.93
2019-02-14T18:37:12.682Z,13.40
2019-02-14T18:39:41.425Z,12.67
2019-02-14T18:42:10.332Z,11.10
2019-02-14T18:44:39.106Z,9.33
2019-02-14T18:47:07.881Z,10.17
2019-02-14T18:49:36.289Z,12.40
2019-02-14T18:52:04.950Z,16.07
2019-02-14T18:54:33.650Z,15.80
2019-02-14T18:57:04.102Z,14.07
2019-02-14T18:59:32.910Z,14.67
2019-02-14T19:02:03.383Z,18.57
2019-02-14T19:04:32.232Z,17.40
2019-02-14T19:07:02.613Z,16.43
2019-02-14T19:09:31.507Z,14.47
2019-02-14T19:12:00.365Z,12.17
2019-02-14T19:14:41.176Z,12.23
2019-02-14T19:17:10.048Z,12.37
2019-02-14T19:19:38.911Z,12.47
2019-02-14T19:22:07.737Z,13.17
2019-02-14T19:24:36.538Z,13.30
2019-02-14T19:27:05.647Z,13.97
2019-02-14T19:29:36.296Z,14.00
2019-02-14T19:32:05.496Z,13.07
2019-02-14T19:34:34.379Z,15.40
2019-02-14T19:37:04.988Z,19.17
2019-02-14T19:39:33.846Z,14.93
2019-02-14T19:42:06.879Z,12.70
2019-02-14T19:44:35.688Z,12.60
2019-02-14T19:47:05.355Z,11.70
2019-02-14T19:49:34.199Z,17.07
2019-02-14T19:52:04.591Z,17.37
2019-02-14T19:54:33.347Z,15.97
2019-02-14T19:57:08.775Z,14.50
2019-02-14T19:59:57.996Z,15.77
2019-02-14T20:02:53.071Z,13.20
2019-02-14T20:09:03.347Z,12.00
2019-02-14T20:12:08.179Z,10.97
2019-02-14T20:15:43.914Z,9.87
2019-02-14T20:18:51.401Z,11.10
2019-02-14T20:21:18.919Z,11.40
2019-02-14T20:24:39.550Z,12.43
2019-02-14T20:28:25.023Z,14.37
2019-02-14T20:30:51.232Z,14.07
2019-02-14T20:33:20.132Z,14.13
2019-02-14T20:35:49.056Z,15.43
2019-02-14T20:38:17.718Z,16.90
2019-02-14T20:40:46.269Z,44.30
2019-02-14T20:43:15.011Z,38.83
2019-02-14T20:45:43.470Z,18.47
2019-02-14T20:48:12.027Z,13.60
2019-02-14T20:50:40.435Z,13.97
2019-02-14T20:53:08.491Z,11.70
2019-02-14T20:55:37.062Z,10.10
2019-02-14T20:58:05.512Z,9.27
2019-02-14T21:00:36.050Z,9.67
2019-02-14T21:03:04.410Z,10.37
2019-02-14T21:05:32.749Z,10.57
2019-02-14T21:08:00.884Z,9.47
2019-02-14T21:10:29.195Z,9.40
2019-02-14T21:12:57.683Z,9.10
2019-02-14T21:16:03.502Z,9.00
2019-02-14T21:18:30.234Z,11.27
2019-02-14T21:20:59.172Z,14.73
2019-02-14T21:23:27.243Z,17.87
2019-02-14T21:26:27.310Z,14.90
2019-02-14T21:28:54.791Z,14.67
2019-02-14T21:31:22.765Z,12.80
2019-02-14T21:33:53.698Z,12.83
2019-02-14T21:36:21.894Z,11.20
2019-02-14T21:38:49.862Z,11.67
2019-02-14T21:41:18.218Z,12.73
2019-02-14T21:43:46.198Z,12.40
2019-02-14T21:46:14.149Z,11.67
2019-02-14T21:48:42.331Z,10.37
2019-02-14T21:51:10.383Z,12.60
2019-02-14T21:53:38.426Z,15.77
2019-02-14T21:56:06.462Z,14.03
2019-02-14T21:58:34.375Z,12.33
2019-02-14T22:01:02.446Z,10.70
2019-02-14T22:03:30.526Z,10.10
2019-02-14T22:05:58.523Z,9.77
2019-02-14T22:08:26.931Z,9.20
2019-02-14T22:10:54.950Z,8.37
2019-02-14T22:13:24.738Z,9.77
2019-02-14T22:16:37.054Z,9.30
2019-02-14T22:19:03.143Z,9.60
2019-02-14T22:21:31.159Z,9.90
2019-02-14T22:23:59.271Z,11.43
2019-02-14T22:26:27.111Z,10.60
2019-02-14T22:28:55.039Z,9.80
2019-02-14T22:31:23.024Z,8.40
2019-02-14T22:33:51.043Z,8.70
2019-02-14T22:36:19.003Z,8.23
2019-02-14T22:38:46.904Z,8.27
2019-02-14T22:41:14.840Z,8.90
2019-02-14T22:43:42.802Z,8.47
2019-02-14T22:46:10.781Z,8.27
2019-02-14T22:48:38.742Z,8.57
2019-02-14T22:51:06.764Z,8.67
2019-02-14T22:53:34.746Z,8.63
2019-02-14T22:56:02.734Z,8.67
2019-02-14T22:58:30.778Z,7.97
2019-02-14T23:00:59.843Z,9.10
2019-02-14T23:03:27.777Z,9.47
2019-02-14T23:05:55.834Z,9.57
2019-02-14T23:08:23.852Z,9.17
2019-02-14T23:10:52.054Z,9.43
2019-02-14T23:13:19.979Z,9.63
2019-02-14T23:15:48.114Z,9.67
2019-02-14T23:18:16.219Z,10.67
2019-02-14T23:20:44.357Z,9.90
2019-02-14T23:23:12.323Z,8.87
2019-02-14T23:25:40.746Z,8.83
2019-02-14T23:28:08.713Z,9.27
2019-02-14T23:30:36.590Z,8.03
2019-02-14T23:33:04.545Z,8.50
2019-02-14T23:35:32.457Z,8.70
2019-02-14T23:38:00.354Z,8.93
2019-02-14T23:40:28.266Z,9.67
2019-02-14T23:43:04.124Z,9.30
2019-02-14T23:45:26.374Z,9.87
2019-02-14T23:47:54.364Z,9.00
2019-02-14T23:50:22.473Z,8.53
2019-02-14T23:52:50.391Z,8.50
2019-02-14T23:55:18.412Z,8.97
2019-02-14T23:57:46.496Z,9.20
